sensor_id;sensor_type;location;lat;lon;timestamp;P1;durP1;ratioP1;P2;durP2;ratioP2
53881;SDS011;39794;55.782;37.452;2023-04-24T00:01:09;15.45;;;5.93;;
53881;SDS011;39794;55.782;37.452;2023-04-24T00:03:41;16.35;;;5.47;;
53881;SDS011;39794;55.782;37.452;2023-04-24T00:06:10;16.98;;;5.65;;
53881;SDS011;39794;55.782;37.452;2023-04-24T00:08:38;14.15;;;6.05;;
53881;SDS011;39794;55.782;37.452;2023-04-24T00:11:07;17.65;;;5.93;;
53881;SDS011;39794;55.782;37.452;2023-04-24T00:13:37;10.40;;;5.05;;
53881;SDS011;39794;55.782;37.452;2023-04-24T00:16:05;13.90;;;5.80;;
53881;SDS011;39794;55.782;37.452;2023-04-24T00:18:34;15.05;;;6.40;;
53881;SDS011;39794;55.782;37.452;2023-04-24T00:21:04;14.73;;;6.22;;
53881;SDS011;39794;55.782;37.452;2023-04-24T00:23:33;17.05;;;5.97;;
53881;SDS011;39794;55.782;37.452;2023-04-24T00:26:01;14.10;;;6.43;;
53881;SDS011;39794;55.782;37.452;2023-04-24T00:28:30;18.50;;;6.50;;
53881;SDS011;39794;55.782;37.452;2023-04-24T00:30:59;12.23;;;5.85;;
53881;SDS011;39794;55.782;37.452;2023-04-24T00:33:27;14.77;;;5.93;;
53881;SDS011;39794;55.782;37.452;2023-04-24T00:35:56;15.23;;;6.25;;
53881;SDS011;39794;55.782;37.452;2023-04-24T00:38:27;15.65;;;6.35;;
53881;SDS011;39794;55.782;37.452;2023-04-24T00:40:55;13.40;;;6.63;;
53881;SDS011;39794;55.782;37.452;2023-04-24T00:43:24;14.60;;;6.20;;
53881;SDS011;39794;55.782;37.452;2023-04-24T00:45:53;11.38;;;6.05;;
53881;SDS011;39794;55.782;37.452;2023-04-24T00:48:23;15.48;;;7.40;;
53881;SDS011;39794;55.782;37.452;2023-04-24T00:50:52;12.43;;;6.20;;
53881;SDS011;39794;55.782;37.452;2023-04-24T00:53:21;12.85;;;6.30;;
53881;SDS011;39794;55.782;37.452;2023-04-24T00:55:54;13.23;;;6.43;;
53881;SDS011;39794;55.782;37.452;2023-04-24T00:58:23;18.60;;;6.40;;
53881;SDS011;39794;55.782;37.452;2023-04-24T01:00:52;21.77;;;5.82;;
53881;SDS011;39794;55.782;37.452;2023-04-24T01:03:23;15.20;;;7.05;;
53881;SDS011;39794;55.782;37.452;2023-04-24T01:05:54;17.02;;;6.13;;
53881;SDS011;39794;55.782;37.452;2023-04-24T01:08:23;12.50;;;6.55;;
53881;SDS011;39794;55.782;37.452;2023-04-24T01:10:52;15.52;;;6.15;;
53881;SDS011;39794;55.782;37.452;2023-04-24T01:13:22;16.73;;;6.65;;
53881;SDS011;39794;55.782;37.452;2023-04-24T01:15:51;13.18;;;6.30;;
53881;SDS011;39794;55.782;37.452;2023-04-24T01:18:19;16.13;;;6.45;;
53881;SDS011;39794;55.782;37.452;2023-04-24T01:20:50;13.40;;;5.78;;
53881;SDS011;39794;55.782;37.452;2023-04-24T01:23:20;11.63;;;6.03;;
53881;SDS011;39794;55.782;37.452;2023-04-24T01:25:51;21.08;;;6.45;;
53881;SDS011;39794;55.782;37.452;2023-04-24T01:28:20;14.43;;;6.57;;
53881;SDS011;39794;55.782;37.452;2023-04-24T01:30:50;19.42;;;6.15;;
53881;SDS011;39794;55.782;37.452;2023-04-24T01:33:22;14.32;;;6.85;;
53881;SDS011;39794;55.782;37.452;2023-04-24T01:35:51;16.02;;;6.88;;
53881;SDS011;39794;55.782;37.452;2023-04-24T01:38:21;17.02;;;6.75;;
53881;SDS011;39794;55.782;37.452;2023-04-24T01:40:50;19.75;;;6.93;;
53881;SDS011;39794;55.782;37.452;2023-04-24T01:43:20;18.40;;;6.60;;
53881;SDS011;39794;55.782;37.452;2023-04-24T01:45:49;12.48;;;6.47;;
53881;SDS011;39794;55.782;37.452;2023-04-24T01:48:17;13.88;;;6.13;;
53881;SDS011;39794;55.782;37.452;2023-04-24T01:50:47;16.73;;;6.53;;
53881;SDS011;39794;55.782;37.452;2023-04-24T01:53:16;15.68;;;6.65;;
53881;SDS011;39794;55.782;37.452;2023-04-24T01:55:48;12.93;;;6.60;;
53881;SDS011;39794;55.782;37.452;2023-04-24T01:58:17;15.40;;;7.05;;
53881;SDS011;39794;55.782;37.452;2023-04-24T02:00:46;18.60;;;7.40;;
53881;SDS011;39794;55.782;37.452;2023-04-24T02:03:14;18.92;;;7.45;;
53881;SDS011;39794;55.782;37.452;2023-04-24T02:05:43;13.93;;;7.47;;
53881;SDS011;39794;55.782;37.452;2023-04-24T02:08:12;14.60;;;7.20;;
53881;SDS011;39794;55.782;37.452;2023-04-24T02:10:40;18.15;;;7.53;;
53881;SDS011;39794;55.782;37.452;2023-04-24T02:13:11;15.07;;;7.15;;
53881;SDS011;39794;55.782;37.452;2023-04-24T02:15:40;14.57;;;6.82;;
53881;SDS011;39794;55.782;37.452;2023-04-24T02:18:09;16.90;;;7.10;;
53881;SDS011;39794;55.782;37.452;2023-04-24T02:20:39;16.52;;;8.13;;
53881;SDS011;39794;55.782;37.452;2023-04-24T02:23:10;19.30;;;7.47;;
53881;SDS011;39794;55.782;37.452;2023-04-24T02:25:40;16.17;;;7.70;;
53881;SDS011;39794;55.782;37.452;2023-04-24T02:28:08;22.30;;;8.43;;
53881;SDS011;39794;55.782;37.452;2023-04-24T02:30:38;14.10;;;7.70;;
53881;SDS011;39794;55.782;37.452;2023-04-24T02:33:07;13.82;;;8.10;;
53881;SDS011;39794;55.782;37.452;2023-04-24T02:35:35;13.00;;;7.30;;
53881;SDS011;39794;55.782;37.452;2023-04-24T02:38:06;18.42;;;7.53;;
53881;SDS011;39794;55.782;37.452;2023-04-24T02:40:35;12.63;;;7.50;;
53881;SDS011;39794;55.782;37.452;2023-04-24T02:43:06;11.48;;;7.57;;
53881;SDS011;39794;55.782;37.452;2023-04-24T02:45:36;12.82;;;8.20;;
53881;SDS011;39794;55.782;37.452;2023-04-24T02:48:06;14.07;;;7.40;;
53881;SDS011;39794;55.782;37.452;2023-04-24T02:50:35;12.45;;;7.28;;
53881;SDS011;39794;55.782;37.452;2023-04-24T02:53:04;13.27;;;8.10;;
53881;SDS011;39794;55.782;37.452;2023-04-24T02:55:33;17.85;;;7.47;;
53881;SDS011;39794;55.782;37.452;2023-04-24T02:58:01;12.68;;;8.85;;
53881;SDS011;39794;55.782;37.452;2023-04-24T03:00:30;12.55;;;8.02;;
53881;SDS011;39794;55.782;37.452;2023-04-24T03:02:58;12.82;;;7.75;;
53881;SDS011;39794;55.782;37.452;2023-04-24T03:05:29;21.05;;;8.00;;
53881;SDS011;39794;55.782;37.452;2023-04-24T03:07:58;13.60;;;7.97;;
53881;SDS011;39794;55.782;37.452;2023-04-24T03:10:27;10.73;;;7.85;;
53881;SDS011;39794;55.782;37.452;2023-04-24T03:12:55;11.32;;;8.05;;
53881;SDS011;39794;55.782;37.452;2023-04-24T03:15:24;13.57;;;7.70;;
53881;SDS011;39794;55.782;37.452;2023-04-24T03:17:55;10.82;;;7.90;;
53881;SDS011;39794;55.782;37.452;2023-04-24T03:20:24;15.40;;;7.93;;
53881;SDS011;39794;55.782;37.452;2023-04-24T03:22:55;14.75;;;7.85;;
53881;SDS011;39794;55.782;37.452;2023-04-24T03:25:24;13.95;;;7.95;;
53881;SDS011;39794;55.782;37.452;2023-04-24T03:27:54;16.77;;;7.68;;
53881;SDS011;39794;55.782;37.452;2023-04-24T03:30:32;17.65;;;7.93;;
53881;SDS011;39794;55.782;37.452;2023-04-24T03:33:01;11.10;;;7.00;;
53881;SDS011;39794;55.782;37.452;2023-04-24T03:35:34;14.90;;;8.55;;
53881;SDS011;39794;55.782;37.452;2023-04-24T03:38:08;10.73;;;6.97;;
53881;SDS011;39794;55.782;37.452;2023-04-24T03:40:43;15.20;;;8.02;;
53881;SDS011;39794;55.782;37.452;2023-04-24T03:43:38;15.10;;;7.78;;
53881;SDS011;39794;55.782;37.452;2023-04-24T03:46:07;11.20;;;7.50;;
53881;SDS011;39794;55.782;37.452;2023-04-24T03:48:41;13.32;;;7.65;;
53881;SDS011;39794;55.782;37.452;2023-04-24T03:51:10;12.95;;;7.85;;
53881;SDS011;39794;55.782;37.452;2023-04-24T03:53:44;15.43;;;7.75;;
53881;SDS011;39794;55.782;37.452;2023-04-24T03:56:19;18.65;;;7.45;;
53881;SDS011;39794;55.782;37.452;2023-04-24T03:58:49;13.00;;;7.78;;
53881;SDS011;39794;55.782;37.452;2023-04-24T04:01:17;14.98;;;7.68;;
53881;SDS011;39794;55.782;37.452;2023-04-24T04:04:05;13.32;;;7.07;;
53881;SDS011;39794;55.782;37.452;2023-04-24T04:09:06;10.30;;;7.00;;
53881;SDS011;39794;55.782;37.452;2023-04-24T04:11:35;11.55;;;7.47;;
53881;SDS011;39794;55.782;37.452;2023-04-24T04:14:04;11.48;;;7.18;;
53881;SDS011;39794;55.782;37.452;2023-04-24T04:16:35;13.82;;;7.63;;
53881;SDS011;39794;55.782;37.452;2023-04-24T04:19:05;12.52;;;8.15;;
53881;SDS011;39794;55.782;37.452;2023-04-24T04:21:35;12.70;;;8.15;;
53881;SDS011;39794;55.782;37.452;2023-04-24T04:24:25;17.65;;;7.93;;
53881;SDS011;39794;55.782;37.452;2023-04-24T04:26:53;12.23;;;7.93;;
53881;SDS011;39794;55.782;37.452;2023-04-24T04:29:35;16.23;;;8.70;;
53881;SDS011;39794;55.782;37.452;2023-04-24T04:32:07;13.85;;;7.72;;
53881;SDS011;39794;55.782;37.452;2023-04-24T04:34:36;12.43;;;8.32;;
53881;SDS011;39794;55.782;37.452;2023-04-24T04:37:09;15.25;;;7.65;;
53881;SDS011;39794;55.782;37.452;2023-04-24T04:40:07;12.40;;;7.70;;
53881;SDS011;39794;55.782;37.452;2023-04-24T04:42:48;16.30;;;7.95;;
53881;SDS011;39794;55.782;37.452;2023-04-24T04:45:23;18.02;;;8.48;;
53881;SDS011;39794;55.782;37.452;2023-04-24T04:48:18;17.35;;;8.02;;
53881;SDS011;39794;55.782;37.452;2023-04-24T04:50:48;16.98;;;7.72;;
53881;SDS011;39794;55.782;37.452;2023-04-24T04:53:17;19.38;;;8.55;;
53881;SDS011;39794;55.782;37.452;2023-04-24T04:55:49;16.52;;;7.43;;
53881;SDS011;39794;55.782;37.452;2023-04-24T04:58:19;15.63;;;7.70;;
53881;SDS011;39794;55.782;37.452;2023-04-24T05:00:53;21.20;;;8.27;;
53881;SDS011;39794;55.782;37.452;2023-04-24T05:03:26;15.50;;;7.85;;
53881;SDS011;39794;55.782;37.452;2023-04-24T05:06:03;12.82;;;7.60;;
53881;SDS011;39794;55.782;37.452;2023-04-24T05:08:35;23.55;;;8.25;;
53881;SDS011;39794;55.782;37.452;2023-04-24T05:11:09;16.45;;;7.55;;
53881;SDS011;39794;55.782;37.452;2023-04-24T05:13:38;18.85;;;8.25;;
53881;SDS011;39794;55.782;37.452;2023-04-24T05:16:13;13.57;;;7.57;;
53881;SDS011;39794;55.782;37.452;2023-04-24T05:18:42;15.77;;;7.85;;
53881;SDS011;39794;55.782;37.452;2023-04-24T05:21:13;20.10;;;8.32;;
53881;SDS011;39794;55.782;37.452;2023-04-24T05:23:46;17.58;;;8.30;;
53881;SDS011;39794;55.782;37.452;2023-04-24T05:26:24;14.50;;;8.30;;
53881;SDS011;39794;55.782;37.452;2023-04-24T05:28:55;18.40;;;8.07;;
53881;SDS011;39794;55.782;37.452;2023-04-24T05:31:27;18.02;;;7.95;;
53881;SDS011;39794;55.782;37.452;2023-04-24T05:33:55;18.65;;;8.65;;
53881;SDS011;39794;55.782;37.452;2023-04-24T05:36:24;19.15;;;8.15;;
53881;SDS011;39794;55.782;37.452;2023-04-24T05:38:53;10.82;;;7.13;;
53881;SDS011;39794;55.782;37.452;2023-04-24T05:41:22;13.93;;;7.32;;
53881;SDS011;39794;55.782;37.452;2023-04-24T05:43:52;19.58;;;8.15;;
53881;SDS011;39794;55.782;37.452;2023-04-24T05:46:20;16.63;;;7.40;;
53881;SDS011;39794;55.782;37.452;2023-04-24T05:48:49;13.02;;;7.60;;
53881;SDS011;39794;55.782;37.452;2023-04-24T05:51:18;17.00;;;7.20;;
53881;SDS011;39794;55.782;37.452;2023-04-24T05:53:48;16.25;;;7.28;;
53881;SDS011;39794;55.782;37.452;2023-04-24T05:56:16;16.40;;;8.23;;
53881;SDS011;39794;55.782;37.452;2023-04-24T05:58:45;11.65;;;7.60;;
53881;SDS011;39794;55.782;37.452;2023-04-24T06:01:16;22.27;;;7.50;;
53881;SDS011;39794;55.782;37.452;2023-04-24T06:03:54;16.15;;;7.90;;
53881;SDS011;39794;55.782;37.452;2023-04-24T06:06:24;16.98;;;7.50;;
53881;SDS011;39794;55.782;37.452;2023-04-24T06:08:54;16.25;;;7.03;;
53881;SDS011;39794;55.782;37.452;2023-04-24T06:11:24;16.17;;;7.47;;
53881;SDS011;39794;55.782;37.452;2023-04-24T06:13:53;18.58;;;7.80;;
53881;SDS011;39794;55.782;37.452;2023-04-24T06:16:41;14.15;;;7.65;;
53881;SDS011;39794;55.782;37.452;2023-04-24T06:19:21;13.23;;;7.53;;
53881;SDS011;39794;55.782;37.452;2023-04-24T06:21:50;13.68;;;7.00;;
53881;SDS011;39794;55.782;37.452;2023-04-24T06:24:19;23.23;;;7.22;;
53881;SDS011;39794;55.782;37.452;2023-04-24T06:26:50;14.70;;;7.13;;
53881;SDS011;39794;55.782;37.452;2023-04-24T06:29:19;21.80;;;7.43;;
53881;SDS011;39794;55.782;37.452;2023-04-24T06:31:51;15.30;;;7.07;;
53881;SDS011;39794;55.782;37.452;2023-04-24T06:34:20;11.90;;;7.07;;
53881;SDS011;39794;55.782;37.452;2023-04-24T06:36:48;13.50;;;6.43;;
53881;SDS011;39794;55.782;37.452;2023-04-24T06:39:17;14.93;;;6.15;;
53881;SDS011;39794;55.782;37.452;2023-04-24T06:41:45;16.90;;;6.60;;
53881;SDS011;39794;55.782;37.452;2023-04-24T06:44:18;10.67;;;6.40;;
53881;SDS011;39794;55.782;37.452;2023-04-24T06:46:47;12.98;;;5.65;;
53881;SDS011;39794;55.782;37.452;2023-04-24T06:49:17;11.85;;;5.50;;
53881;SDS011;39794;55.782;37.452;2023-04-24T06:51:47;13.07;;;6.00;;
53881;SDS011;39794;55.782;37.452;2023-04-24T06:54:16;12.13;;;5.97;;
53881;SDS011;39794;55.782;37.452;2023-04-24T06:56:47;11.65;;;5.22;;
53881;SDS011;39794;55.782;37.452;2023-04-24T06:59:17;8.55;;;4.57;;
53881;SDS011;39794;55.782;37.452;2023-04-24T07:01:46;12.05;;;4.68;;
53881;SDS011;39794;55.782;37.452;2023-04-24T07:04:15;23.70;;;5.20;;
53881;SDS011;39794;55.782;37.452;2023-04-24T07:06:46;7.93;;;4.95;;
53881;SDS011;39794;55.782;37.452;2023-04-24T07:09:15;9.43;;;4.60;;
53881;SDS011;39794;55.782;37.452;2023-04-24T07:11:45;7.50;;;4.75;;
53881;SDS011;39794;55.782;37.452;2023-04-24T07:14:14;10.75;;;4.78;;
53881;SDS011;39794;55.782;37.452;2023-04-24T07:16:43;11.02;;;4.95;;
53881;SDS011;39794;55.782;37.452;2023-04-24T07:19:12;9.50;;;5.20;;
53881;SDS011;39794;55.782;37.452;2023-04-24T07:21:41;9.68;;;4.50;;
53881;SDS011;39794;55.782;37.452;2023-04-24T07:24:11;10.35;;;4.88;;
53881;SDS011;39794;55.782;37.452;2023-04-24T07:26:39;11.85;;;4.47;;
53881;SDS011;39794;55.782;37.452;2023-04-24T07:29:08;14.18;;;4.53;;
53881;SDS011;39794;55.782;37.452;2023-04-24T07:31:36;8.15;;;4.10;;
53881;SDS011;39794;55.782;37.452;2023-04-24T07:34:06;8.63;;;4.45;;
53881;SDS011;39794;55.782;37.452;2023-04-24T07:36:34;7.30;;;4.35;;
53881;SDS011;39794;55.782;37.452;2023-04-24T07:39:05;10.25;;;4.25;;
53881;SDS011;39794;55.782;37.452;2023-04-24T07:41:35;9.98;;;4.32;;
53881;SDS011;39794;55.782;37.452;2023-04-24T07:44:05;9.20;;;4.80;;
53881;SDS011;39794;55.782;37.452;2023-04-24T07:46:34;10.93;;;4.50;;
53881;SDS011;39794;55.782;37.452;2023-04-24T07:49:03;10.32;;;4.82;;
53881;SDS011;39794;55.782;37.452;2023-04-24T07:51:39;8.95;;;4.70;;
53881;SDS011;39794;55.782;37.452;2023-04-24T07:54:08;10.27;;;4.50;;
53881;SDS011;39794;55.782;37.452;2023-04-24T07:56:39;6.18;;;4.10;;
53881;SDS011;39794;55.782;37.452;2023-04-24T07:59:09;7.82;;;3.63;;
53881;SDS011;39794;55.782;37.452;2023-04-24T08:01:38;6.32;;;4.28;;
53881;SDS011;39794;55.782;37.452;2023-04-24T08:04:10;9.70;;;4.20;;
53881;SDS011;39794;55.782;37.452;2023-04-24T08:06:39;4.68;;;3.80;;
53881;SDS011;39794;55.782;37.452;2023-04-24T08:09:08;10.55;;;3.90;;
53881;SDS011;39794;55.782;37.452;2023-04-24T08:11:36;8.32;;;4.20;;
53881;SDS011;39794;55.782;37.452;2023-04-24T08:14:08;7.60;;;3.88;;
53881;SDS011;39794;55.782;37.452;2023-04-24T08:16:39;8.63;;;4.43;;
53881;SDS011;39794;55.782;37.452;2023-04-24T08:19:07;10.45;;;4.32;;
53881;SDS011;39794;55.782;37.452;2023-04-24T08:21:36;8.23;;;4.35;;
53881;SDS011;39794;55.782;37.452;2023-04-24T08:24:04;7.25;;;4.13;;
53881;SDS011;39794;55.782;37.452;2023-04-24T08:26:34;6.65;;;4.00;;
53881;SDS011;39794;55.782;37.452;2023-04-24T08:29:04;7.13;;;4.18;;
53881;SDS011;39794;55.782;37.452;2023-04-24T08:31:33;6.90;;;4.40;;
53881;SDS011;39794;55.782;37.452;2023-04-24T08:34:02;8.23;;;3.78;;
53881;SDS011;39794;55.782;37.452;2023-04-24T08:36:31;6.55;;;4.95;;
53881;SDS011;39794;55.782;37.452;2023-04-24T08:39:15;5.97;;;4.30;;
53881;SDS011;39794;55.782;37.452;2023-04-24T08:44:18;7.93;;;4.53;;
53881;SDS011;39794;55.782;37.452;2023-04-24T08:46:48;8.20;;;4.30;;
53881;SDS011;39794;55.782;37.452;2023-04-24T08:49:18;6.28;;;3.50;;
53881;SDS011;39794;55.782;37.452;2023-04-24T08:51:49;5.85;;;4.30;;
53881;SDS011;39794;55.782;37.452;2023-04-24T08:54:19;6.38;;;4.28;;
53881;SDS011;39794;55.782;37.452;2023-04-24T08:56:50;7.82;;;4.55;;
53881;SDS011;39794;55.782;37.452;2023-04-24T08:59:23;10.50;;;4.47;;
53881;SDS011;39794;55.782;37.452;2023-04-24T09:01:52;7.57;;;4.05;;
53881;SDS011;39794;55.782;37.452;2023-04-24T09:04:21;6.60;;;3.67;;
53881;SDS011;39794;55.782;37.452;2023-04-24T09:06:52;8.05;;;4.38;;
53881;SDS011;39794;55.782;37.452;2023-04-24T09:09:24;16.38;;;4.80;;
53881;SDS011;39794;55.782;37.452;2023-04-24T09:11:53;9.07;;;4.25;;
53881;SDS011;39794;55.782;37.452;2023-04-24T09:14:24;8.90;;;3.97;;
53881;SDS011;39794;55.782;37.452;2023-04-24T09:16:54;7.22;;;4.07;;
53881;SDS011;39794;55.782;37.452;2023-04-24T09:19:23;6.95;;;4.15;;
53881;SDS011;39794;55.782;37.452;2023-04-24T09:21:52;6.03;;;4.18;;
53881;SDS011;39794;55.782;37.452;2023-04-24T09:24:21;8.68;;;4.07;;
53881;SDS011;39794;55.782;37.452;2023-04-24T09:26:55;7.00;;;3.95;;
53881;SDS011;39794;55.782;37.452;2023-04-24T09:29:27;12.10;;;4.57;;
53881;SDS011;39794;55.782;37.452;2023-04-24T09:31:56;9.95;;;4.07;;
53881;SDS011;39794;55.782;37.452;2023-04-24T09:34:25;5.13;;;3.72;;
53881;SDS011;39794;55.782;37.452;2023-04-24T09:36:57;5.18;;;4.00;;
53881;SDS011;39794;55.782;37.452;2023-04-24T09:39:25;9.98;;;4.03;;
53881;SDS011;39794;55.782;37.452;2023-04-24T09:41:54;15.20;;;4.50;;
53881;SDS011;39794;55.782;37.452;2023-04-24T09:44:24;8.65;;;4.70;;
53881;SDS011;39794;55.782;37.452;2023-04-24T09:46:56;5.93;;;4.30;;
53881;SDS011;39794;55.782;37.452;2023-04-24T09:49:26;7.68;;;3.83;;
53881;SDS011;39794;55.782;37.452;2023-04-24T09:52:02;4.78;;;3.47;;
53881;SDS011;39794;55.782;37.452;2023-04-24T09:54:31;8.15;;;3.80;;
53881;SDS011;39794;55.782;37.452;2023-04-24T09:57:00;8.48;;;4.00;;
53881;SDS011;39794;55.782;37.452;2023-04-24T09:59:30;7.60;;;3.78;;
53881;SDS011;39794;55.782;37.452;2023-04-24T10:02:04;6.55;;;3.85;;
53881;SDS011;39794;55.782;37.452;2023-04-24T10:04:53;9.90;;;4.30;;
53881;SDS011;39794;55.782;37.452;2023-04-24T10:07:25;4.45;;;3.60;;
53881;SDS011;39794;55.782;37.452;2023-04-24T10:09:54;13.98;;;5.35;;
53881;SDS011;39794;55.782;37.452;2023-04-24T10:12:22;5.65;;;3.90;;
53881;SDS011;39794;55.782;37.452;2023-04-24T10:14:53;4.65;;;3.50;;
53881;SDS011;39794;55.782;37.452;2023-04-24T10:17:24;8.25;;;3.65;;
53881;SDS011;39794;55.782;37.452;2023-04-24T10:19:53;6.53;;;4.00;;
53881;SDS011;39794;55.782;37.452;2023-04-24T10:22:22;4.20;;;3.58;;
53881;SDS011;39794;55.782;37.452;2023-04-24T10:24:51;8.18;;;4.05;;
53881;SDS011;39794;55.782;37.452;2023-04-24T10:27:20;11.68;;;6.45;;
53881;SDS011;39794;55.782;37.452;2023-04-24T10:29:50;10.10;;;6.97;;
53881;SDS011;39794;55.782;37.452;2023-04-24T10:32:23;8.75;;;4.40;;
53881;SDS011;39794;55.782;37.452;2023-04-24T10:34:52;11.90;;;4.15;;
53881;SDS011;39794;55.782;37.452;2023-04-24T10:37:22;5.43;;;4.25;;
53881;SDS011;39794;55.782;37.452;2023-04-24T10:39:53;8.30;;;4.13;;
53881;SDS011;39794;55.782;37.452;2023-04-24T10:42:22;11.88;;;3.78;;
53881;SDS011;39794;55.782;37.452;2023-04-24T10:44:51;9.10;;;3.92;;
53881;SDS011;39794;55.782;37.452;2023-04-24T10:47:22;13.38;;;4.88;;
53881;SDS011;39794;55.782;37.452;2023-04-24T10:49:53;7.50;;;4.22;;
53881;SDS011;39794;55.782;37.452;2023-04-24T10:52:26;12.48;;;5.18;;
53881;SDS011;39794;55.782;37.452;2023-04-24T10:55:12;9.10;;;4.38;;
53881;SDS011;39794;55.782;37.452;2023-04-24T11:00:31;5.68;;;3.38;;
53881;SDS011;39794;55.782;37.452;2023-04-24T11:03:03;5.63;;;3.30;;
53881;SDS011;39794;55.782;37.452;2023-04-24T11:05:50;7.00;;;3.53;;
53881;SDS011;39794;55.782;37.452;2023-04-24T11:08:27;4.72;;;3.30;;
53881;SDS011;39794;55.782;37.452;2023-04-24T11:10:58;5.35;;;3.45;;
53881;SDS011;39794;55.782;37.452;2023-04-24T11:16:30;4.22;;;3.40;;
53881;SDS011;39794;55.782;37.452;2023-04-24T11:19:03;12.13;;;3.72;;
53881;SDS011;39794;55.782;37.452;2023-04-24T11:21:40;4.57;;;3.22;;
53881;SDS011;39794;55.782;37.452;2023-04-24T11:24:23;5.80;;;3.35;;
53881;SDS011;39794;55.782;37.452;2023-04-24T11:26:53;16.88;;;3.90;;
53881;SDS011;39794;55.782;37.452;2023-04-24T11:29:22;3.92;;;3.50;;
53881;SDS011;39794;55.782;37.452;2023-04-24T11:31:54;7.32;;;4.15;;
53881;SDS011;39794;55.782;37.452;2023-04-24T11:34:25;6.00;;;3.85;;
53881;SDS011;39794;55.782;37.452;2023-04-24T11:36:53;3.72;;;3.22;;
53881;SDS011;39794;55.782;37.452;2023-04-24T11:39:22;6.68;;;3.42;;
53881;SDS011;39794;55.782;37.452;2023-04-24T11:41:51;5.90;;;3.30;;
53881;SDS011;39794;55.782;37.452;2023-04-24T11:44:20;5.38;;;3.42;;
53881;SDS011;39794;55.782;37.452;2023-04-24T11:46:50;8.73;;;3.38;;
53881;SDS011;39794;55.782;37.452;2023-04-24T11:49:19;8.07;;;2.95;;
53881;SDS011;39794;55.782;37.452;2023-04-24T11:51:48;8.50;;;3.28;;
53881;SDS011;39794;55.782;37.452;2023-04-24T11:54:20;5.03;;;3.63;;
53881;SDS011;39794;55.782;37.452;2023-04-24T11:56:49;5.57;;;2.80;;
53881;SDS011;39794;55.782;37.452;2023-04-24T11:59:18;7.85;;;3.50;;
53881;SDS011;39794;55.782;37.452;2023-04-24T12:01:47;7.85;;;3.10;;
53881;SDS011;39794;55.782;37.452;2023-04-24T12:04:17;4.70;;;3.15;;
53881;SDS011;39794;55.782;37.452;2023-04-24T12:07:00;5.57;;;3.20;;
53881;SDS011;39794;55.782;37.452;2023-04-24T12:09:29;4.70;;;3.35;;
53881;SDS011;39794;55.782;37.452;2023-04-24T12:11:57;6.70;;;3.10;;
53881;SDS011;39794;55.782;37.452;2023-04-24T12:14:25;3.65;;;3.00;;
53881;SDS011;39794;55.782;37.452;2023-04-24T12:16:54;7.20;;;3.33;;
53881;SDS011;39794;55.782;37.452;2023-04-24T12:19:24;6.78;;;3.13;;
53881;SDS011;39794;55.782;37.452;2023-04-24T12:22:00;7.13;;;3.22;;
53881;SDS011;39794;55.782;37.452;2023-04-24T12:24:30;6.65;;;3.22;;
53881;SDS011;39794;55.782;37.452;2023-04-24T12:26:59;8.32;;;3.58;;
53881;SDS011;39794;55.782;37.452;2023-04-24T12:29:28;8.70;;;3.53;;
53881;SDS011;39794;55.782;37.452;2023-04-24T12:31:57;5.35;;;3.28;;
53881;SDS011;39794;55.782;37.452;2023-04-24T12:34:25;4.32;;;3.33;;
53881;SDS011;39794;55.782;37.452;2023-04-24T12:36:54;8.15;;;3.13;;
53881;SDS011;39794;55.782;37.452;2023-04-24T12:39:23;8.63;;;3.53;;
53881;SDS011;39794;55.782;37.452;2023-04-24T12:41:54;4.72;;;3.40;;
53881;SDS011;39794;55.782;37.452;2023-04-24T12:44:31;7.40;;;3.30;;
53881;SDS011;39794;55.782;37.452;2023-04-24T12:47:01;5.95;;;2.90;;
53881;SDS011;39794;55.782;37.452;2023-04-24T12:49:30;4.72;;;3.22;;
53881;SDS011;39794;55.782;37.452;2023-04-24T12:51:58;6.95;;;3.15;;
53881;SDS011;39794;55.782;37.452;2023-04-24T12:54:33;3.50;;;2.75;;
53881;SDS011;39794;55.782;37.452;2023-04-24T12:57:01;7.22;;;3.50;;
53881;SDS011;39794;55.782;37.452;2023-04-24T12:59:30;7.70;;;2.95;;
53881;SDS011;39794;55.782;37.452;2023-04-24T13:01:59;6.72;;;3.10;;
53881;SDS011;39794;55.782;37.452;2023-04-24T13:04:27;6.68;;;3.03;;
53881;SDS011;39794;55.782;37.452;2023-04-24T13:06:56;4.25;;;2.92;;
53881;SDS011;39794;55.782;37.452;2023-04-24T13:09:25;8.88;;;3.70;;
53881;SDS011;39794;55.782;37.452;2023-04-24T13:11:55;3.53;;;2.97;;
53881;SDS011;39794;55.782;37.452;2023-04-24T13:14:27;7.18;;;2.80;;
53881;SDS011;39794;55.782;37.452;2023-04-24T13:16:56;4.57;;;2.80;;
53881;SDS011;39794;55.782;37.452;2023-04-24T13:19:25;4.78;;;2.70;;
53881;SDS011;39794;55.782;37.452;2023-04-24T13:21:54;8.48;;;3.15;;
53881;SDS011;39794;55.782;37.452;2023-04-24T13:24:24;10.02;;;3.40;;
53881;SDS011;39794;55.782;37.452;2023-04-24T13:26:53;8.48;;;3.30;;
53881;SDS011;39794;55.782;37.452;2023-04-24T13:29:23;11.85;;;3.50;;
53881;SDS011;39794;55.782;37.452;2023-04-24T13:31:52;7.00;;;3.00;;
53881;SDS011;39794;55.782;37.452;2023-04-24T13:34:22;3.83;;;2.88;;
53881;SDS011;39794;55.782;37.452;2023-04-24T13:36:50;5.38;;;3.28;;
53881;SDS011;39794;55.782;37.452;2023-04-24T13:39:22;7.13;;;3.40;;
53881;SDS011;39794;55.782;37.452;2023-04-24T13:41:50;5.70;;;3.30;;
53881;SDS011;39794;55.782;37.452;2023-04-24T13:44:21;5.47;;;3.15;;
53881;SDS011;39794;55.782;37.452;2023-04-24T13:46:51;7.50;;;3.85;;
53881;SDS011;39794;55.782;37.452;2023-04-24T13:49:24;8.55;;;3.97;;
53881;SDS011;39794;55.782;37.452;2023-04-24T13:51:53;6.30;;;3.67;;
53881;SDS011;39794;55.782;37.452;2023-04-24T13:54:22;7.25;;;3.35;;
53881;SDS011;39794;55.782;37.452;2023-04-24T13:56:53;7.63;;;3.17;;
53881;SDS011;39794;55.782;37.452;2023-04-24T13:59:23;12.50;;;3.42;;
53881;SDS011;39794;55.782;37.452;2023-04-24T14:01:52;8.32;;;3.42;;
53881;SDS011;39794;55.782;37.452;2023-04-24T14:04:23;9.75;;;3.38;;
53881;SDS011;39794;55.782;37.452;2023-04-24T14:06:52;5.97;;;2.95;;
53881;SDS011;39794;55.782;37.452;2023-04-24T14:09:22;13.45;;;3.30;;
53881;SDS011;39794;55.782;37.452;2023-04-24T14:11:51;9.32;;;3.78;;
53881;SDS011;39794;55.782;37.452;2023-04-24T14:14:19;6.60;;;3.30;;
53881;SDS011;39794;55.782;37.452;2023-04-24T14:16:49;5.72;;;3.45;;
53881;SDS011;39794;55.782;37.452;2023-04-24T14:19:21;9.77;;;3.67;;
53881;SDS011;39794;55.782;37.452;2023-04-24T14:21:49;4.70;;;3.35;;
53881;SDS011;39794;55.782;37.452;2023-04-24T14:24:20;8.88;;;3.15;;
53881;SDS011;39794;55.782;37.452;2023-04-24T14:26:50;6.47;;;3.15;;
53881;SDS011;39794;55.782;37.452;2023-04-24T14:29:20;6.38;;;3.60;;
53881;SDS011;39794;55.782;37.452;2023-04-24T14:31:50;4.95;;;3.30;;
53881;SDS011;39794;55.782;37.452;2023-04-24T14:34:19;5.13;;;3.78;;
53881;SDS011;39794;55.782;37.452;2023-04-24T14:36:48;6.25;;;3.80;;
53881;SDS011;39794;55.782;37.452;2023-04-24T14:39:19;7.85;;;3.75;;
53881;SDS011;39794;55.782;37.452;2023-04-24T14:41:53;7.45;;;3.88;;
53881;SDS011;39794;55.782;37.452;2023-04-24T14:44:21;8.05;;;3.72;;
53881;SDS011;39794;55.782;37.452;2023-04-24T14:46:51;6.72;;;3.13;;
53881;SDS011;39794;55.782;37.452;2023-04-24T14:49:21;7.43;;;3.50;;
53881;SDS011;39794;55.782;37.452;2023-04-24T14:51:51;7.05;;;3.30;;
53881;SDS011;39794;55.782;37.452;2023-04-24T14:54:20;8.38;;;3.08;;
53881;SDS011;39794;55.782;37.452;2023-04-24T14:56:54;6.32;;;3.30;;
53881;SDS011;39794;55.782;37.452;2023-04-24T14:59:24;5.07;;;3.38;;